createdAt,value
2022-08-03T00:02:34.174Z,101627.56
2022-08-03T00:05:37.855Z,101624.91
2022-08-03T00:08:42.218Z,101630.25
2022-08-03T00:11:45.100Z,101624.91
2022-08-03T00:14:48.022Z,101626.69
2022-08-03T00:17:52.782Z,101623.16
2022-08-03T00:20:56.938Z,101626.75
2022-08-03T00:24:01.481Z,101618.81
2022-08-03T00:27:04.509Z,101614.34
2022-08-03T00:30:08.943Z,101610.78
2022-08-03T00:33:11.888Z,101608.09
2022-08-03T00:36:16.853Z,101614.34
2022-08-03T00:39:21.059Z,101612.53
2022-08-03T00:42:24.032Z,101605.44
2022-08-03T00:45:33.710Z,101610.78
2022-08-03T00:48:36.654Z,101606.31
2022-08-03T00:51:39.818Z,101602.84
2022-08-03T00:54:44.282Z,101594.81
2022-08-03T00:57:48.021Z,101595.69
2022-08-03T01:00:51.162Z,101591.19
2022-08-03T01:03:54.209Z,101589.47
2022-08-03T01:07:04.912Z,101590.38
2022-08-03T01:10:24.919Z,101591.34
2022-08-03T01:14:01.661Z,101590.47
2022-08-03T01:17:03.171Z,101576.22
2022-08-03T01:20:10.642Z,101577.97
2022-08-03T01:23:42.521Z,101572.63
2022-08-03T01:27:05.035Z,101569.94
2022-08-03T01:30:11.983Z,101574.41
2022-08-03T01:33:20.101Z,101580.63
2022-08-03T01:36:25.759Z,101569.06
2022-08-03T01:39:32.890Z,101573.53
2022-08-03T01:42:37.710Z,101570.94
2022-08-03T01:45:42.522Z,101575.41
2022-08-03T01:48:47.239Z,101585.25
2022-08-03T01:51:58.694Z,101579.91
2022-08-03T01:55:08.793Z,101581.78
2022-08-03T01:58:14.765Z,101576.44
2022-08-03T02:01:22.696Z,101579.97
2022-08-03T02:04:26.874Z,101577.31
2022-08-03T02:07:31.518Z,101576.44
2022-08-03T02:10:36.470Z,101577.31
2022-08-03T02:13:40.594Z,101576.44
2022-08-03T02:16:46.584Z,101579.06
2022-08-03T02:19:51.722Z,101572.84
2022-08-03T02:22:54.765Z,101571.94
2022-08-03T02:26:01.943Z,101559.53
2022-08-03T02:29:12.389Z,101562.22
2022-08-03T02:32:21.455Z,101560.38
2022-08-03T02:35:27.420Z,101565.81
2022-08-03T02:38:40.400Z,101563.13
2022-08-03T02:41:47.239Z,101557.88
2022-08-03T02:44:53.608Z,101560.53
2022-08-03T02:48:01.862Z,101557.88
2022-08-03T02:51:06.378Z,101561.41
2022-08-03T02:54:10.647Z,101564.94
2022-08-03T02:57:15.411Z,101560.53
2022-08-03T03:00:19.638Z,101565.81
2022-08-03T03:03:37.234Z,101569.44
2022-08-03T03:06:47.931Z,101569.44
2022-08-03T03:09:52.147Z,101568.66
2022-08-03T03:12:57.887Z,101563.31
2022-08-03T03:16:04.095Z,101568.66
2022-08-03T03:19:09.394Z,101570.44
2022-08-03T03:22:13.830Z,101561.56
2022-08-03T03:25:17.381Z,101565.97
2022-08-03T03:28:20.826Z,101566.91
2022-08-03T03:31:24.261Z,101569.56
2022-08-03T03:34:30.144Z,101573.13
2022-08-03T03:37:33.651Z,101578.56
2022-08-03T03:40:36.674Z,101573.22
2022-08-03T03:43:39.757Z,101573.22
2022-08-03T03:46:43.095Z,101567.88
2022-08-03T03:49:48.129Z,101568.69
2022-08-03T03:52:51.251Z,101570.53
2022-08-03T03:55:59.274Z,101571.38
2022-08-03T03:59:05.718Z,101566.13
2022-08-03T04:02:09.719Z,101563.44
2022-08-03T04:05:32.549Z,101565.25
2022-08-03T04:08:49.531Z,101567.03
2022-08-03T04:11:54.189Z,101574.13
2022-08-03T04:14:59.660Z,101574.13
2022-08-03T04:18:04.706Z,101574.13
2022-08-03T04:21:12.256Z,101567.03
2022-08-03T04:24:16.593Z,101573.25
2022-08-03T04:27:25.788Z,101579.47
2022-08-03T04:30:29.953Z,101575.94
2022-08-03T04:33:35.619Z,101578.59
2022-08-03T04:36:48.855Z,101584.84
2022-08-03T04:39:56.967Z,101588.44
2022-08-03T04:43:01.700Z,101582.25
2022-08-03T04:46:05.954Z,101580.41
2022-08-03T04:49:09.237Z,101585.84
2022-08-03T04:52:16.023Z,101583.09
2022-08-03T04:55:27.308Z,101584.91
2022-08-03T04:58:30.228Z,101583.09
2022-08-03T05:01:33.118Z,101586.72
2022-08-03T05:04:38.062Z,101585.75
2022-08-03T05:07:42.408Z,101586.72
2022-08-03T05:10:45.404Z,101581.38
2022-08-03T05:13:48.677Z,101588.50
2022-08-03T05:16:51.525Z,101590.31
2022-08-03T05:19:54.560Z,101590.31
2022-08-03T05:22:59.772Z,101589.47
2022-08-03T05:26:02.773Z,101586.84
2022-08-03T05:29:05.952Z,101588.59
2022-08-03T05:32:09.007Z,101593.94
2022-08-03T05:35:56.195Z,101591.28
2022-08-03T05:38:36.359Z,101599.28
2022-08-03T05:41:39.211Z,101596.63
2022-08-03T05:44:42.158Z,101591.28
2022-08-03T05:47:45.211Z,101600.22
2022-08-03T05:50:48.153Z,101602.84
2022-08-03T05:53:52.476Z,101602.75
2022-08-03T05:56:55.503Z,101607.25
2022-08-03T05:59:59.006Z,101602.75
2022-08-03T06:03:02.395Z,101603.63
2022-08-03T06:06:05.831Z,101604.56
2022-08-03T06:09:10.801Z,101601.88
2022-08-03T06:12:14.266Z,101603.69
2022-08-03T06:15:18.683Z,101595.66
2022-08-03T06:18:21.629Z,101601.00
2022-08-03T06:21:24.553Z,101596.63
2022-08-03T06:24:32.829Z,101597.53
2022-08-03T06:27:37.647Z,101598.41
2022-08-03T06:30:41.577Z,101594.81
2022-08-03T06:34:22.848Z,101593.00
2022-08-03T06:37:07.497Z,101592.06
2022-08-03T06:40:13.983Z,101590.19
2022-08-03T06:43:17.009Z,101599.00
2022-08-03T06:46:20.556Z,101591.94
2022-08-03T06:49:23.595Z,101590.06
2022-08-03T06:52:37.828Z,101591.78
2022-08-03T06:55:42.838Z,101589.09
2022-08-03T06:58:46.954Z,101592.56
2022-08-03T07:01:50.082Z,101590.69
2022-08-03T07:04:53.001Z,101588.88
2022-08-03T07:07:57.744Z,101590.56
2022-08-03T07:11:02.501Z,101594.03
2022-08-03T07:14:05.903Z,101580.63
2022-08-03T07:17:11.987Z,101580.47
2022-08-03T07:20:15.308Z,101585.69
2022-08-03T07:23:19.260Z,101585.56
2022-08-03T07:26:23.810Z,101584.50
2022-08-03T07:29:26.727Z,101587.00
2022-08-03T07:32:31.463Z,101583.41
2022-08-03T07:35:34.777Z,101587.75
2022-08-03T07:38:37.845Z,101578.63
2022-08-03T07:41:42.331Z,101573.97
2022-08-03T07:44:45.319Z,101571.28
2022-08-03T07:47:53.478Z,101569.53
2022-08-03T07:50:56.948Z,101572.31
2022-08-03T07:54:00.925Z,101570.66
2022-08-03T07:57:05.406Z,101574.28
2022-08-03T08:00:13.748Z,101569.06
2022-08-03T08:03:16.617Z,101571.81
2022-08-03T08:06:19.648Z,101576.31
2022-08-03T08:09:23.501Z,101571.91
2022-08-03T08:12:27.724Z,101572.84
2022-08-03T08:15:31.631Z,101567.47
2022-08-03T08:18:34.516Z,101573.78
2022-08-03T08:21:54.009Z,101574.69
2022-08-03T08:25:01.290Z,101572.09
2022-08-03T08:28:29.416Z,101572.97
2022-08-03T08:31:29.031Z,101571.22
2022-08-03T08:34:32.414Z,101565.88
2022-08-03T08:37:35.992Z,101571.22
2022-08-03T08:40:38.841Z,101562.31
2022-08-03T08:43:43.365Z,101560.50
2022-08-03T08:46:47.008Z,101565.88
2022-08-03T08:50:09.199Z,101572.09
2022-08-03T08:53:17.406Z,101570.28
2022-08-03T08:56:25.469Z,101567.63
2022-08-03T08:59:48.337Z,101562.25
2022-08-03T09:02:52.601Z,101559.59
2022-08-03T09:05:56.505Z,101557.84
2022-08-03T09:08:59.781Z,101556.03
2022-08-03T09:12:21.118Z,101562.25
2022-08-03T09:15:29.132Z,101560.50
2022-08-03T09:18:33.175Z,101563.19
2022-08-03T09:21:36.747Z,101550.69
2022-08-03T09:25:21.578Z,101549.81
2022-08-03T09:28:32.439Z,101550.69
2022-08-03T09:31:46.000Z,101554.25
2022-08-03T09:34:50.063Z,101548.00
2022-08-03T09:38:13.581Z,101545.25
2022-08-03T09:41:20.258Z,101547.94
2022-08-03T09:44:35.681Z,101541.69
2022-08-03T09:47:44.728Z,101545.25
2022-08-03T09:50:58.740Z,101535.47
2022-08-03T09:54:20.288Z,101550.59
2022-08-03T09:57:24.764Z,101537.22
2022-08-03T10:00:27.609Z,101544.38
2022-08-03T10:03:34.988Z,101534.53
2022-08-03T10:06:37.835Z,101539.91
2022-08-03T10:09:55.383Z,101534.53
2022-08-03T10:12:58.358Z,101538.13
2022-08-03T10:16:22.241Z,101536.34
2022-08-03T10:19:26.650Z,101529.16
2022-08-03T10:22:33.943Z,101531.81
2022-08-03T10:25:40.643Z,101522.94
2022-08-03T10:28:50.301Z,101522.00
2022-08-03T10:31:57.716Z,101513.97
2022-08-03T10:35:19.896Z,101518.44
2022-08-03T10:38:30.234Z,101506.91
2022-08-03T10:41:36.209Z,101514.94
2022-08-03T10:44:42.376Z,101512.25
2022-08-03T10:47:46.277Z,101507.75
2022-08-03T10:50:51.969Z,101503.25
2022-08-03T10:53:55.827Z,101508.63
2022-08-03T10:57:16.127Z,101503.25
2022-08-03T11:00:22.332Z,101499.66
2022-08-03T11:03:25.297Z,101491.53
2022-08-03T11:06:37.408Z,101480.84
2022-08-03T11:09:42.949Z,101490.66
2022-08-03T11:12:46.867Z,101492.41
2022-08-03T11:15:52.137Z,101484.44
2022-08-03T11:18:59.611Z,101479.97
2022-08-03T11:22:03.894Z,101479.97
2022-08-03T11:25:07.899Z,101476.41
2022-08-03T11:28:30.641Z,101485.31
2022-08-03T11:31:57.882Z,101480.94
2022-08-03T11:35:09.515Z,101476.38
2022-08-03T11:38:13.843Z,101463.91
2022-08-03T11:41:44.810Z,101475.50
2022-08-03T11:44:49.010Z,101474.63
2022-08-03T11:47:56.206Z,101473.69
2022-08-03T11:50:59.374Z,101467.38
2022-08-03T11:54:05.316Z,101462.03
2022-08-03T11:57:08.389Z,101467.38
2022-08-03T12:00:26.213Z,101472.72
2022-08-03T12:03:34.144Z,101462.03
2022-08-03T12:06:54.917Z,101460.31
2022-08-03T12:10:10.705Z,101461.19
2022-08-03T12:14:44.635Z,101464.69
2022-08-03T12:16:36.835Z,101477.25
2022-08-03T12:19:45.880Z,101466.53
2022-08-03T12:22:48.767Z,101472.72
2022-08-03T12:25:53.093Z,101466.44
2022-08-03T12:28:58.392Z,101463.78
2022-08-03T12:32:01.570Z,101459.28
2022-08-03T12:35:05.974Z,101456.53
2022-08-03T12:38:08.992Z,101463.69
2022-08-03T12:41:16.015Z,101456.53
2022-08-03T12:44:18.980Z,101454.78
2022-08-03T12:47:21.891Z,101437.88
2022-08-03T12:50:26.695Z,101444.94
2022-08-03T12:53:31.058Z,101437.88
2022-08-03T12:56:35.613Z,101430.69
2022-08-03T12:59:42.511Z,101425.34
2022-08-03T13:03:38.381Z,101428.00
2022-08-03T13:06:26.452Z,101414.63
2022-08-03T13:09:29.753Z,101416.38
2022-08-03T13:12:36.146Z,101410.16
2022-08-03T13:15:47.673Z,101421.66
2022-08-03T13:18:53.271Z,101418.97
2022-08-03T13:22:04.001Z,101417.16
2022-08-03T13:25:08.501Z,101413.63
2022-08-03T13:28:14.427Z,101411.91
2022-08-03T13:31:17.644Z,101409.13
2022-08-03T13:34:23.474Z,101415.41
2022-08-03T13:37:27.866Z,101410.06
2022-08-03T13:40:36.750Z,101404.72
2022-08-03T13:43:46.216Z,101410.06
2022-08-03T13:46:49.673Z,101411.91
2022-08-03T13:49:59.373Z,101410.06
2022-08-03T13:53:04.989Z,101407.34
2022-08-03T13:56:07.883Z,101408.19
2022-08-03T13:59:12.085Z,101393.88
2022-08-03T14:02:15.066Z,101392.06
2022-08-03T14:05:18.129Z,101393.88
2022-08-03T14:08:21.003Z,101406.28
2022-08-03T14:11:23.898Z,101406.28
2022-08-03T14:14:48.151Z,101388.50
2022-08-03T14:17:51.045Z,101388.44
2022-08-03T14:20:56.359Z,101390.22
2022-08-03T14:24:00.357Z,101389.38
2022-08-03T14:27:09.006Z,101384.03
2022-08-03T14:30:14.957Z,101386.72
2022-08-03T14:33:17.941Z,101379.53
2022-08-03T14:36:20.820Z,101381.28
2022-08-03T14:39:23.760Z,101386.63
2022-08-03T14:42:26.727Z,101383.00
2022-08-03T14:45:31.026Z,101366.00
2022-08-03T14:50:30.828Z,101386.47
2022-08-03T14:51:57.155Z,101376.69
2022-08-03T14:55:01.095Z,101382.06
2022-08-03T14:58:05.766Z,101371.34
2022-08-03T15:02:04.701Z,101374.03
2022-08-03T15:04:47.314Z,101369.53
2022-08-03T15:07:50.243Z,101368.66
2022-08-03T15:10:53.576Z,101365.13
2022-08-03T15:13:56.490Z,101361.59
2022-08-03T15:17:00.993Z,101365.06
2022-08-03T15:20:22.486Z,101359.72
2022-08-03T15:23:27.316Z,101356.06
2022-08-03T15:26:35.385Z,101354.25
2022-08-03T15:30:09.131Z,101363.16
2022-08-03T15:33:07.281Z,101349.78
2022-08-03T15:36:10.260Z,101348.81
2022-08-03T15:39:13.201Z,101352.47
2022-08-03T15:42:16.140Z,101344.44
2022-08-03T15:45:20.509Z,101348.81
2022-08-03T15:48:26.463Z,101353.31
2022-08-03T15:51:29.781Z,101347.09
2022-08-03T15:54:32.729Z,101347.94
2022-08-03T15:59:10.003Z,101345.22
2022-08-03T16:01:00.218Z,101347.09
2022-08-03T16:04:04.640Z,101343.47
2022-08-03T16:07:07.589Z,101339.88
2022-08-03T16:10:16.890Z,101338.91
2022-08-03T16:13:19.774Z,101337.97
2022-08-03T16:16:22.626Z,101344.19
2022-08-03T16:19:27.771Z,101346.00
2022-08-03T16:22:30.791Z,101337.00
2022-08-03T16:25:35.992Z,101343.31
2022-08-03T16:28:39.154Z,101333.47
2022-08-03T16:31:51.077Z,101339.69
2022-08-03T16:34:56.205Z,101339.69
2022-08-03T16:37:59.667Z,101329.84
2022-08-03T16:41:02.578Z,101338.84
2022-08-03T16:44:09.854Z,101335.19
2022-08-03T16:47:22.355Z,101337.78
2022-08-03T16:50:27.081Z,101332.44
2022-08-03T16:53:42.137Z,101334.19
2022-08-03T16:56:53.230Z,101335.81
2022-08-03T16:59:56.512Z,101332.28
2022-08-03T17:03:04.272Z,101346.44
2022-08-03T17:06:09.462Z,101329.50
2022-08-03T17:09:14.154Z,101342.81
2022-08-03T17:12:17.899Z,101342.81
2022-08-03T17:15:21.283Z,101341.88
2022-08-03T17:18:47.925Z,101344.53
2022-08-03T17:22:01.139Z,101347.13
2022-08-03T17:25:07.489Z,101341.78
2022-08-03T17:28:48.124Z,101345.25
2022-08-03T17:31:48.915Z,101346.13
2022-08-03T17:34:53.009Z,101347.84
2022-08-03T17:38:03.435Z,101347.84
2022-08-03T17:41:10.547Z,101351.31
2022-08-03T17:44:31.178Z,101351.31
2022-08-03T17:47:41.865Z,101354.94
2022-08-03T17:51:04.257Z,101351.31
2022-08-03T17:54:18.534Z,101351.31
2022-08-03T17:57:30.286Z,101355.78
2022-08-03T18:02:03.318Z,101354.00
2022-08-03T18:04:42.733Z,101359.34
2022-08-03T18:07:50.807Z,101353.03
2022-08-03T18:11:14.352Z,101357.50
2022-08-03T18:14:26.704Z,101358.38
2022-08-03T18:17:55.858Z,101357.44
2022-08-03T18:20:55.175Z,101357.44
2022-08-03T18:23:59.552Z,101360.97
2022-08-03T18:27:06.607Z,101362.81
2022-08-03T18:30:12.013Z,101357.44
2022-08-03T18:34:20.331Z,101356.47
2022-08-03T18:36:39.833Z,101355.63
2022-08-03T18:39:49.872Z,101361.84
2022-08-03T18:42:55.207Z,101367.19
2022-08-03T18:46:04.554Z,101359.16
2022-08-03T18:49:14.129Z,101369.00
2022-08-03T18:52:27.856Z,101371.63
2022-08-03T18:59:02.308Z,101373.44
2022-08-03T19:02:09.297Z,101368.06
2022-08-03T19:05:40.102Z,101376.97
2022-08-03T19:08:54.258Z,101370.66
2022-08-03T19:12:14.044Z,101374.31
2022-08-03T19:15:36.803Z,101372.50
2022-08-03T19:18:49.565Z,101375.16
2022-08-03T19:21:53.860Z,101382.25
2022-08-03T19:24:57.843Z,101380.53
2022-08-03T19:28:02.995Z,101376.88
2022-08-03T19:31:10.265Z,101380.25
2022-08-03T19:34:16.935Z,101379.31
2022-08-03T19:37:22.095Z,101375.66
2022-08-03T19:40:25.998Z,101380.00
2022-08-03T19:43:53.210Z,101387.09
2022-08-03T19:47:02.746Z,101392.47
2022-08-03T19:50:14.060Z,101394.19
2022-08-03T19:53:18.343Z,101391.44
2022-08-03T19:56:26.499Z,101392.38
2022-08-03T19:59:34.609Z,101389.69
2022-08-03T20:02:43.024Z,101393.34
2022-08-03T20:05:52.226Z,101395.16
2022-08-03T20:08:58.679Z,101392.47
2022-08-03T20:12:01.851Z,101391.59
2022-08-03T20:15:07.056Z,101386.22
2022-08-03T20:18:16.980Z,101385.38
2022-08-03T20:21:23.489Z,101382.78
2022-08-03T20:24:28.382Z,101380.09
2022-08-03T20:28:07.289Z,101380.97
2022-08-03T20:31:02.126Z,101380.09
2022-08-03T20:34:07.509Z,101378.28
2022-08-03T20:37:12.728Z,101379.16
2022-08-03T20:40:15.990Z,101377.41
2022-08-03T20:43:20.072Z,101377.41
2022-08-03T20:46:31.377Z,101382.78
2022-08-03T20:49:48.012Z,101375.66
2022-08-03T20:52:51.202Z,101382.78
2022-08-03T20:56:02.317Z,101377.41
2022-08-03T20:59:17.963Z,101384.59
2022-08-03T21:05:51.857Z,101388.13
2022-08-03T21:09:06.786Z,101380.19
2022-08-03T21:12:17.866Z,101384.69
2022-08-03T21:13:11.192Z,101366.31
2022-08-03T21:16:06.860Z,101386.38
2022-08-03T21:18:51.834Z,101395.28
2022-08-03T21:21:56.814Z,101397.09
2022-08-03T21:25:05.082Z,101391.75
2022-08-03T21:28:08.710Z,101397.97
2022-08-03T21:31:12.150Z,101390.97
2022-08-03T21:34:16.596Z,101396.31
2022-08-03T21:37:21.281Z,101398.16
2022-08-03T21:40:24.428Z,101390.19
2022-08-03T21:43:27.426Z,101394.59
2022-08-03T21:46:34.955Z,101391.06
2022-08-03T21:50:02.613Z,101390.19
2022-08-03T21:53:04.443Z,101391.16
2022-08-03T21:56:10.133Z,101390.28
2022-08-03T21:59:18.604Z,101390.19
2022-08-03T22:02:24.367Z,101390.19
2022-08-03T22:05:43.423Z,101392.81
2022-08-03T22:08:49.660Z,101397.28
2022-08-03T22:11:54.179Z,101391.94
2022-08-03T22:15:00.554Z,101392.84
2022-08-03T22:18:06.024Z,101390.19
2022-08-03T22:21:12.378Z,101392.84
2022-08-03T22:24:19.018Z,101388.47
2022-08-03T22:27:31.406Z,101400.09
2022-08-03T22:30:34.956Z,101397.44
2022-08-03T22:33:39.319Z,101401.94
2022-08-03T22:36:44.194Z,101401.94
2022-08-03T22:39:48.858Z,101400.19
2022-08-03T22:42:53.329Z,101410.81
2022-08-03T22:46:10.514Z,101401.06
2022-08-03T22:49:17.515Z,101401.94
2022-08-03T22:52:21.350Z,101409.97
2022-08-03T22:55:26.209Z,101408.16
2022-08-03T22:58:29.202Z,101417.13
2022-08-03T23:01:38.351Z,101409.09
2022-08-03T23:04:44.732Z,101410.03
2022-08-03T23:07:51.199Z,101413.69
2022-08-03T23:10:58.058Z,101404.78
2022-08-03T23:14:04.330Z,101406.56
2022-08-03T23:17:08.406Z,101413.69
2022-08-03T23:20:11.800Z,101409.25
2022-08-03T23:23:16.110Z,101404.00
2022-08-03T23:26:24.725Z,101399.50
2022-08-03T23:29:30.317Z,101397.63
2022-08-03T23:32:34.715Z,101403.91
2022-08-03T23:36:28.257Z,101402.09
2022-08-03T23:39:19.207Z,101395.88
2022-08-03T23:42:24.850Z,101393.19
2022-08-03T23:45:28.638Z,101403.03
2022-08-03T23:48:31.753Z,101397.75
2022-08-03T23:51:43.402Z,101401.31
2022-08-03T23:54:54.282Z,101392.41
2022-08-03T23:58:10.949Z,101396.06
